createdAt,value
2023-10-29T08:27:20.562Z,97811.28
2023-10-29T08:28:23.774Z,97808.56
2023-10-29T08:29:25.723Z,97806.75
2023-10-29T08:30:27.879Z,97813.72
2023-10-29T08:31:29.825Z,97820.72
2023-10-29T08:32:34.484Z,97816.41
2023-10-29T08:33:36.604Z,97811.28
2023-10-29T08:34:39.059Z,97817.25
2023-10-29T08:35:45.801Z,97819.81
2023-10-29T08:36:48.000Z,97816.41
2023-10-29T08:37:49.991Z,97814.88
2023-10-29T08:38:52.804Z,97822.56
2023-10-29T08:39:58.717Z,97824.38
2023-10-29T08:41:00.666Z,97820.81
2023-10-29T08:42:04.108Z,97829.47
2023-10-29T08:43:06.771Z,97827.66
2023-10-29T08:44:08.706Z,97831.84
2023-10-29T08:45:11.209Z,97829.13
2023-10-29T08:46:13.881Z,97828.16
2023-10-29T08:47:16.330Z,97827.19
2023-10-29T08:48:18.396Z,97825.47
2023-10-29T08:49:20.526Z,97832.28
2023-10-29T08:50:22.781Z,97833.84
2023-10-29T08:51:24.796Z,97827.06
2023-10-29T08:52:26.803Z,97828.03
2023-10-29T08:53:28.804Z,97833.50
2023-10-29T08:54:30.789Z,97830.16
2023-10-29T08:55:36.857Z,97838.00
2023-10-29T08:56:39.054Z,97837.91
2023-10-29T08:57:41.072Z,97838.84
2023-10-29T08:58:43.203Z,97841.38
2023-10-29T08:59:45.194Z,97841.63
2023-10-29T09:00:47.314Z,97839.13
2023-10-29T09:01:49.964Z,97832.94
2023-10-29T09:02:54.058Z,97838.00
2023-10-29T09:03:57.023Z,97838.78
2023-10-29T09:04:59.388Z,97845.66
2023-10-29T09:06:05.492Z,97838.59
2023-10-29T09:07:08.631Z,97847.28
2023-10-29T09:08:10.807Z,97844.69
2023-10-29T09:09:14.123Z,97849.06
2023-10-29T09:10:16.466Z,97843.09
2023-10-29T09:11:18.577Z,97851.72
2023-10-29T09:12:21.889Z,97856.06
2023-10-29T09:13:25.456Z,97850.84
2023-10-29T09:14:27.584Z,97856.91
2023-10-29T09:15:30.254Z,97854.22
2023-10-29T09:16:32.453Z,97853.31
2023-10-29T09:17:34.455Z,97855.03
2023-10-29T09:18:37.137Z,97853.22
2023-10-29T09:19:39.031Z,97855.81
2023-10-29T09:20:41.219Z,97849.78
2023-10-29T09:21:45.447Z,97852.66
2023-10-29T09:22:47.832Z,97846.09
2023-10-29T09:23:49.727Z,97859.16
2023-10-29T09:24:51.853Z,97853.97
2023-10-29T09:25:54.176Z,97850.38
2023-10-29T09:26:56.374Z,97855.50
2023-10-29T09:27:59.468Z,97853.69
2023-10-29T09:29:01.598Z,97858.91
2023-10-29T09:30:03.920Z,97859.03
2023-10-29T09:31:06.958Z,97859.06
2023-10-29T09:32:09.252Z,97864.25
2023-10-29T09:33:13.265Z,97868.63
2023-10-29T09:34:15.338Z,97876.53
2023-10-29T09:35:17.404Z,97873.13
2023-10-29T09:36:19.666Z,97876.53
2023-10-29T09:37:22.950Z,97879.94
2023-10-29T09:38:25.087Z,97876.28
2023-10-29T09:39:27.877Z,97883.22
2023-10-29T09:40:30.000Z,97881.53
2023-10-29T09:41:33.968Z,97874.59
2023-10-29T09:42:41.919Z,97878.22
2023-10-29T09:43:44.387Z,97871.31
2023-10-29T09:44:50.345Z,97878.22
2023-10-29T09:45:53.966Z,97879.19
2023-10-29T09:47:03.938Z,97888.78
2023-10-29T09:48:08.885Z,97883.56
2023-10-29T09:49:14.334Z,97880.09
2023-10-29T09:50:16.413Z,97889.72
2023-10-29T09:51:20.421Z,97885.44
2023-10-29T09:52:27.742Z,97882.84
2023-10-29T09:53:30.843Z,97881.16
2023-10-29T09:54:33.507Z,97888.13
2023-10-29T09:55:35.546Z,97890.75
2023-10-29T09:56:38.493Z,97891.47
2023-10-29T09:57:41.141Z,97892.22
2023-10-29T09:58:43.564Z,97893.06
2023-10-29T09:59:46.105Z,97897.31
2023-10-29T10:00:49.765Z,97902.66
2023-10-29T10:01:58.649Z,97901.75
2023-10-29T10:03:01.342Z,97906.09
2023-10-29T10:04:03.484Z,97905.41
2023-10-29T10:05:11.189Z,97913.25
2023-10-29T10:06:20.883Z,97913.13
2023-10-29T10:07:23.170Z,97913.16
2023-10-29T10:08:27.791Z,97911.38
2023-10-29T10:09:53.855Z,97917.31
2023-10-29T10:10:57.283Z,97916.53
2023-10-29T10:12:06.400Z,97915.91
2023-10-29T10:13:09.234Z,97923.75
2023-10-29T10:14:29.538Z,97927.13
2023-10-29T10:15:31.915Z,97920.97
2023-10-29T10:16:35.863Z,97930.50
2023-10-29T10:17:38.789Z,97926.31
2023-10-29T10:18:55.537Z,97926.44
2023-10-29T10:20:08.459Z,97933.47
2023-10-29T10:21:11.382Z,97930.97
2023-10-29T10:22:34.020Z,97932.69
2023-10-29T10:23:47.929Z,97936.81
2023-10-29T10:24:49.894Z,97940.31
2023-10-29T10:26:00.138Z,97942.81
2023-10-29T10:27:02.272Z,97941.09
2023-10-29T10:28:05.862Z,97939.38
2023-10-29T10:29:09.647Z,97944.53
2023-10-29T10:30:26.230Z,97945.34
2023-10-29T10:31:29.029Z,97947.13
2023-10-29T10:32:31.898Z,97941.94
2023-10-29T10:33:34.011Z,97950.75
2023-10-29T10:34:38.671Z,97949.84
2023-10-29T10:35:45.533Z,97945.41
2023-10-29T10:36:51.697Z,97953.16
2023-10-29T10:37:55.562Z,97951.31
2023-10-29T10:38:57.622Z,97948.66
2023-10-29T10:39:59.698Z,97954.84
2023-10-29T10:41:01.775Z,97956.66
2023-10-29T10:42:04.993Z,97946.31
2023-10-29T10:43:10.246Z,97948.81
2023-10-29T10:44:16.197Z,97956.66
2023-10-29T10:45:22.364Z,97955.00
2023-10-29T10:46:25.378Z,97955.91
2023-10-29T10:47:30.167Z,97953.50
2023-10-29T10:48:33.626Z,97952.47
2023-10-29T10:49:36.211Z,97956.66
2023-10-29T10:50:39.581Z,97961.88
2023-10-29T10:51:42.267Z,97970.53
2023-10-29T10:52:44.650Z,97962.72
2023-10-29T10:53:46.931Z,97963.66
2023-10-29T10:54:50.375Z,97966.25
2023-10-29T10:56:03.361Z,97968.94
2023-10-29T10:57:08.508Z,97967.22
2023-10-29T10:58:13.399Z,97973.09
2023-10-29T10:59:16.483Z,97974.06
2023-10-29T11:00:20.259Z,97981.91
2023-10-29T11:01:22.508Z,97975.81
2023-10-29T11:02:25.409Z,97972.34
2023-10-29T11:03:33.597Z,97980.13
2023-10-29T11:04:37.404Z,97982.69
2023-10-29T11:05:41.482Z,97979.22
2023-10-29T11:06:44.319Z,97980.19
2023-10-29T11:07:46.699Z,97983.72
2023-10-29T11:08:49.149Z,97982.97
2023-10-29T11:09:51.140Z,97984.75
2023-10-29T11:10:56.279Z,97984.97
2023-10-29T11:11:59.178Z,97985.06
2023-10-29T11:13:21.645Z,97987.72
2023-10-29T11:14:26.175Z,97995.53
2023-10-29T11:15:28.445Z,97983.25
2023-10-29T11:16:30.720Z,97995.34
2023-10-29T11:17:58.995Z,97989.16
2023-10-29T11:19:46.055Z,98000.53
2023-10-29T11:20:58.293Z,98000.66
2023-10-29T11:22:30.684Z,98002.56
2023-10-29T11:23:34.042Z,98009.50
2023-10-29T11:24:37.388Z,98007.78
2023-10-29T11:25:41.613Z,98019.16
2023-10-29T11:26:43.843Z,98016.59
2023-10-29T11:27:47.445Z,98020.91
2023-10-29T11:28:54.658Z,98020.06
2023-10-29T11:30:14.534Z,98029.75
2023-10-29T11:31:21.860Z,98028.00
2023-10-29T11:32:26.341Z,98025.56
2023-10-29T11:33:28.694Z,98036.06
2023-10-29T11:34:30.740Z,98034.38
2023-10-29T11:35:33.747Z,98039.59
2023-10-29T11:36:40.816Z,98037.94
2023-10-29T11:37:43.533Z,98032.69
2023-10-29T11:38:47.233Z,98036.38
2023-10-29T11:39:49.182Z,98043.19
2023-10-29T11:40:51.231Z,98043.19
2023-10-29T11:41:53.785Z,98048.31
2023-10-29T11:43:01.056Z,98049.19
2023-10-29T11:44:29.213Z,98051.94
2023-10-29T11:45:33.531Z,98053.00
2023-10-29T11:47:04.816Z,98057.38
2023-10-29T11:48:10.720Z,98055.69
2023-10-29T11:49:12.828Z,98061.97
2023-10-29T11:50:15.148Z,98059.28
2023-10-29T11:51:20.833Z,98059.19
2023-10-29T11:52:22.817Z,98067.94
2023-10-29T11:53:28.334Z,98061.84
2023-10-29T11:54:33.664Z,98073.19
2023-10-29T11:55:41.122Z,98066.22
2023-10-29T11:56:46.688Z,98065.22
2023-10-29T11:57:49.039Z,98073.91
2023-10-29T11:59:04.003Z,98072.34
2023-10-29T12:00:06.882Z,98078.47
2023-10-29T12:01:09.068Z,98083.72
2023-10-29T12:02:11.217Z,98081.91
2023-10-29T12:03:20.506Z,98087.13
2023-10-29T12:04:30.612Z,98085.50
2023-10-29T12:05:33.321Z,98095.09
2023-10-29T12:06:44.615Z,98093.25
2023-10-29T12:07:46.885Z,98096.69
2023-10-29T12:08:49.079Z,98092.34
2023-10-29T12:11:01.461Z,98097.69
2023-10-29T12:12:10.622Z,98116.75
2023-10-29T12:13:12.847Z,98103.84
2023-10-29T12:14:14.905Z,98112.56
2023-10-29T12:15:17.949Z,98109.09
2023-10-29T12:16:21.794Z,98107.25
2023-10-29T12:17:24.030Z,98117.69
2023-10-29T12:18:26.941Z,98121.09
2023-10-29T12:19:39.401Z,98116.75
2023-10-29T12:20:41.341Z,98118.50
2023-10-29T12:21:54.180Z,98125.44
2023-10-29T12:22:58.368Z,98116.72
2023-10-29T12:24:00.895Z,98122.81
2023-10-29T12:25:04.399Z,98125.41
2023-10-29T12:26:11.015Z,98130.63
2023-10-29T12:27:13.446Z,98128.03
2023-10-29T12:28:15.780Z,98131.56
2023-10-29T12:29:18.358Z,98136.06
2023-10-29T12:30:35.882Z,98133.38
2023-10-29T12:31:38.016Z,98134.38
2023-10-29T12:32:40.133Z,98144.91
2023-10-29T12:33:42.072Z,98137.94
2023-10-29T12:34:51.832Z,98146.69
2023-10-29T12:36:00.310Z,98144.91
2023-10-29T12:37:02.524Z,98141.66
2023-10-29T12:38:04.457Z,98148.56
2023-10-29T12:39:08.427Z,98152.03
2023-10-29T12:40:11.002Z,98146.91
2023-10-29T12:41:18.201Z,98155.44
2023-10-29T12:42:21.039Z,98158.94
2023-10-29T12:43:37.198Z,98156.41
2023-10-29T12:44:39.928Z,98156.31
2023-10-29T12:45:44.031Z,98159.88
2023-10-29T12:46:52.691Z,98165.09
2023-10-29T12:48:15.932Z,98167.59
2023-10-29T12:49:26.463Z,98168.50
2023-10-29T12:50:28.559Z,98168.53
2023-10-29T12:51:31.645Z,98179.91
2023-10-29T12:52:33.586Z,98179.00
2023-10-29T12:53:35.610Z,98179.00
2023-10-29T12:54:43.709Z,98182.59
2023-10-29T12:55:45.959Z,98185.31
2023-10-29T12:56:59.536Z,98187.97
2023-10-29T12:58:04.978Z,98187.94
2023-10-29T12:59:09.227Z,98199.22
2023-10-29T13:00:12.300Z,98201.00
2023-10-29T13:01:15.328Z,98201.94
2023-10-29T13:02:25.300Z,98202.72
2023-10-29T13:03:28.828Z,98203.63
2023-10-29T13:04:30.894Z,98203.63
2023-10-29T13:05:32.902Z,98202.72
2023-10-29T13:06:34.757Z,98213.16
2023-10-29T13:07:41.244Z,98211.47
2023-10-29T13:08:43.261Z,98208.84
2023-10-29T13:09:45.931Z,98216.88
2023-10-29T13:10:48.002Z,98216.88
2023-10-29T13:11:53.224Z,98217.63
2023-10-29T13:12:55.452Z,98214.13
2023-10-29T13:14:08.397Z,98225.44
2023-10-29T13:15:11.231Z,98223.78
2023-10-29T13:16:13.267Z,98217.69
2023-10-29T13:17:18.087Z,98230.84
2023-10-29T13:18:20.795Z,98229.94
2023-10-29T13:19:24.213Z,98230.78
2023-10-29T13:20:28.215Z,98242.91
2023-10-29T13:21:31.305Z,98237.66
2023-10-29T13:22:33.488Z,98242.91
2023-10-29T13:23:35.638Z,98246.31
2023-10-29T13:24:38.109Z,98242.81
2023-10-29T13:25:40.021Z,98254.94
2023-10-29T13:26:42.415Z,98245.47
2023-10-29T13:27:44.558Z,98248.78
2023-10-29T13:28:46.797Z,98254.16
2023-10-29T13:29:49.728Z,98246.22
2023-10-29T13:30:56.511Z,98255.13
2023-10-29T13:31:59.926Z,98255.94
2023-10-29T13:33:02.171Z,98253.34
2023-10-29T13:34:09.679Z,98260.31
2023-10-29T13:35:12.660Z,98255.03
2023-10-29T13:36:15.233Z,98257.66
2023-10-29T13:37:18.060Z,98262.78
2023-10-29T13:38:20.276Z,98259.41
2023-10-29T13:39:22.501Z,98272.47
2023-10-29T13:40:24.445Z,98270.72
2023-10-29T13:41:26.503Z,98276.84
2023-10-29T13:42:28.430Z,98274.22
2023-10-29T13:43:30.643Z,98275.09
2023-10-29T13:44:32.622Z,98275.84
2023-10-29T13:45:35.293Z,98275.06
2023-10-29T13:46:37.650Z,98277.66
2023-10-29T13:47:40.473Z,98281.16
2023-10-29T13:48:42.444Z,98283.75
2023-10-29T13:49:44.535Z,98290.56
2023-10-29T13:50:46.413Z,98284.66
2023-10-29T13:51:48.554Z,98289.13
2023-10-29T13:52:50.492Z,98291.78
2023-10-29T13:53:54.581Z,98296.91
2023-10-29T13:54:57.563Z,98293.41
2023-10-29T13:56:09.921Z,98295.97
2023-10-29T13:57:12.171Z,98300.53
2023-10-29T13:58:14.216Z,98293.41
2023-10-29T13:59:16.489Z,98304.72
2023-10-29T14:00:20.378Z,98305.56
2023-10-29T14:01:24.053Z,98307.34
2023-10-29T14:02:26.940Z,98313.47
2023-10-29T14:03:29.334Z,98311.72
2023-10-29T14:04:31.595Z,98309.09
2023-10-29T14:05:33.990Z,98315.19
2023-10-29T14:06:36.107Z,98323.13
2023-10-29T14:07:39.018Z,98323.94
2023-10-29T14:08:41.154Z,98329.97
2023-10-29T14:09:43.517Z,98325.72
2023-10-29T14:10:55.530Z,98328.34
2023-10-29T14:11:57.786Z,98325.72
2023-10-29T14:13:00.345Z,98330.00
2023-10-29T14:14:02.339Z,98336.09
2023-10-29T14:15:05.222Z,98343.13
2023-10-29T14:16:07.493Z,98342.22
2023-10-29T14:17:09.716Z,98341.31
2023-10-29T14:18:11.889Z,98350.03
2023-10-29T14:19:13.936Z,98342.13
2023-10-29T14:20:15.907Z,98350.88
2023-10-29T14:21:18.067Z,98347.28
2023-10-29T14:22:20.208Z,98353.50
2023-10-29T14:23:24.730Z,98361.31
2023-10-29T14:24:27.213Z,98357.81
2023-10-29T14:25:29.262Z,98354.44
2023-10-29T14:26:31.621Z,98368.34
2023-10-29T14:27:34.043Z,98359.75
2023-10-29T14:28:36.249Z,98360.59
2023-10-29T14:29:38.514Z,98366.66
2023-10-29T14:30:41.673Z,98364.72
2023-10-29T14:31:44.879Z,98360.47
2023-10-29T14:32:47.306Z,98366.72
2023-10-29T14:33:52.050Z,98372.66
2023-10-29T14:34:54.067Z,98366.72
2023-10-29T14:35:57.524Z,98378.03
2023-10-29T14:36:59.631Z,98374.47
2023-10-29T14:38:01.665Z,98371.78
2023-10-29T14:39:03.980Z,98381.44
2023-10-29T14:40:06.985Z,98379.63
2023-10-29T14:41:09.171Z,98381.41
2023-10-29T14:42:11.206Z,98390.00
2023-10-29T14:43:21.791Z,98387.53
2023-10-29T14:44:24.380Z,98384.84
2023-10-29T14:45:27.813Z,98390.06
2023-10-29T14:46:29.981Z,98391.00
2023-10-29T14:47:32.076Z,98391.84
2023-10-29T14:48:34.139Z,98392.66
2023-10-29T14:49:36.171Z,98390.84
2023-10-29T14:50:38.220Z,98397.91
2023-10-29T14:51:41.111Z,98385.78
2023-10-29T14:52:44.392Z,98395.34
2023-10-29T14:53:46.319Z,98396.22
2023-10-29T14:54:49.257Z,98403.19
2023-10-29T14:55:51.418Z,98394.44
2023-10-29T14:56:53.509Z,98400.53
2023-10-29T14:57:55.470Z,98398.00
2023-10-29T14:58:57.625Z,98407.56
2023-10-29T14:59:59.527Z,98406.75
2023-10-29T15:01:06.197Z,98408.50
2023-10-29T15:02:08.297Z,98410.28
2023-10-29T15:03:10.423Z,98402.44
2023-10-29T15:04:12.779Z,98407.56
2023-10-29T15:05:14.921Z,98405.03
2023-10-29T15:06:17.053Z,98411.09
2023-10-29T15:07:19.076Z,98407.66
2023-10-29T15:08:20.942Z,98417.22
2023-10-29T15:09:25.124Z,98413.81
2023-10-29T15:10:27.437Z,98416.34
2023-10-29T15:11:36.768Z,98413.81
2023-10-29T15:12:39.530Z,98422.50
2023-10-29T15:13:45.775Z,98427.66
2023-10-29T15:14:49.994Z,98423.34
2023-10-29T15:15:52.383Z,98433.88
2023-10-29T15:16:54.521Z,98427.72
2023-10-29T15:17:57.023Z,98425.97
2023-10-29T15:18:59.481Z,98427.81
2023-10-29T15:20:02.454Z,98436.47
2023-10-29T15:21:17.786Z,98426.13
2023-10-29T15:22:19.831Z,98424.44
2023-10-29T15:23:21.806Z,98438.25
2023-10-29T15:24:23.714Z,98433.97
2023-10-29T15:25:26.128Z,98442.72
2023-10-29T15:26:28.122Z,98438.41
2023-10-29T15:27:31.608Z,98438.41
2023-10-29T15:28:34.461Z,98445.38
2023-10-29T15:29:36.687Z,98441.03
2023-10-29T15:30:38.861Z,98444.53
2023-10-29T15:31:40.879Z,98452.31
2023-10-29T15:32:43.341Z,98461.03
2023-10-29T15:33:46.148Z,98454.09
2023-10-29T15:34:48.298Z,98452.41
2023-10-29T15:35:52.183Z,98457.59
2023-10-29T15:36:54.107Z,98462.81
2023-10-29T15:37:57.811Z,98466.34
2023-10-29T15:38:59.820Z,98461.19
2023-10-29T15:40:03.843Z,98473.41
2023-10-29T15:41:06.821Z,98469.91
2023-10-29T15:42:10.003Z,98469.91
2023-10-29T15:43:12.031Z,98473.41
2023-10-29T15:44:14.116Z,98473.41
2023-10-29T15:45:16.510Z,98473.41
2023-10-29T15:46:18.621Z,98476.03
2023-10-29T15:47:29.734Z,98482.06
2023-10-29T15:48:33.287Z,98480.16
2023-10-29T15:49:35.417Z,98488.88
2023-10-29T15:50:37.495Z,98486.31
2023-10-29T15:51:39.656Z,98480.34
2023-10-29T15:52:41.934Z,98484.72
2023-10-29T15:53:44.063Z,98495.94
2023-10-29T15:54:46.424Z,98477.72
2023-10-29T15:55:49.083Z,98481.13
2023-10-29T15:56:52.352Z,98484.72
2023-10-29T15:57:54.355Z,98487.38
2023-10-29T15:58:56.408Z,98489.09
2023-10-29T15:59:58.805Z,98493.41
2023-10-29T16:01:00.894Z,98494.22
2023-10-29T16:02:02.956Z,98496.00
2023-10-29T16:03:06.040Z,98498.63
2023-10-29T16:04:08.014Z,98502.00
2023-10-29T16:05:10.253Z,98496.84
2023-10-29T16:06:12.967Z,98501.16
2023-10-29T16:07:15.263Z,98507.13
2023-10-29T16:08:17.387Z,98506.22
2023-10-29T16:09:19.504Z,98509.66
2023-10-29T16:11:48.556Z,98520.34
2023-10-29T16:12:50.717Z,98517.66
2023-10-29T16:13:52.853Z,98525.50
2023-10-29T16:14:56.261Z,98518.63
2023-10-29T16:15:58.334Z,98523.78
2023-10-29T16:17:00.406Z,98530.66
2023-10-29T16:18:04.113Z,98533.25
2023-10-29T16:19:06.274Z,98529.88
2023-10-29T16:20:08.797Z,98535.94
2023-10-29T16:21:12.184Z,98535.09
2023-10-29T16:22:17.080Z,98537.56
2023-10-29T16:23:19.198Z,98536.75
2023-10-29T16:24:21.204Z,98536.78
2023-10-29T16:25:23.272Z,98545.47
2023-10-29T16:26:25.367Z,98545.50
2023-10-29T16:27:27.828Z,98544.50
2023-10-29T16:28:29.938Z,98544.47
2023-10-29T16:29:32.578Z,98547.16
2023-10-29T16:30:34.583Z,98553.22
2023-10-29T16:31:36.559Z,98561.88
2023-10-29T16:32:38.633Z,98553.16
2023-10-29T16:33:40.925Z,98562.78
2023-10-29T16:34:43.124Z,98559.28
2023-10-29T16:35:45.333Z,98568.97
2023-10-29T16:36:47.234Z,98561.97
2023-10-29T16:37:49.249Z,98570.78
2023-10-29T16:38:51.186Z,98566.41
2023-10-29T16:39:53.362Z,98576.78
2023-10-29T16:40:57.575Z,98575.00
2023-10-29T16:42:00.754Z,98569.81
2023-10-29T16:43:02.926Z,98569.81
2023-10-29T16:44:05.286Z,98576.84
2023-10-29T16:45:08.224Z,98577.56
2023-10-29T16:46:13.313Z,98575.78
2023-10-29T16:47:15.380Z,98583.63
2023-10-29T16:48:17.594Z,98582.84
2023-10-29T16:49:19.685Z,98587.06
2023-10-29T16:50:21.804Z,98589.84
2023-10-29T16:51:23.908Z,98591.50
2023-10-29T16:52:26.142Z,98591.50
2023-10-29T16:53:28.022Z,98587.16
2023-10-29T16:54:30.359Z,98592.38
2023-10-29T16:55:40.232Z,98597.59
2023-10-29T16:56:42.437Z,98600.22
2023-10-29T16:57:44.411Z,98602.91
2023-10-29T16:58:46.473Z,98601.25
2023-10-29T16:59:48.718Z,98615.09
2023-10-29T17:00:50.842Z,98605.50
2023-10-29T17:01:56.366Z,98609.03
2023-10-29T17:02:58.593Z,98615.16
2023-10-29T17:04:01.577Z,98617.75
2023-10-29T17:05:03.752Z,98622.00
2023-10-29T17:06:07.922Z,98618.63
2023-10-29T17:07:10.644Z,98627.25
2023-10-29T17:08:14.212Z,98621.88
2023-10-29T17:09:16.520Z,98627.94
2023-10-29T17:10:19.564Z,98627.09
2023-10-29T17:11:21.681Z,98629.84
2023-10-29T17:12:23.839Z,98628.22
2023-10-29T17:13:28.362Z,98629.13
2023-10-29T17:14:30.334Z,98630.06
2023-10-29T17:15:32.621Z,98641.25
2023-10-29T17:16:34.724Z,98638.59
2023-10-29T17:17:37.888Z,98636.91
2023-10-29T17:18:39.973Z,98650.81
2023-10-29T17:19:43.499Z,98644.69
2023-10-29T17:20:50.201Z,98636.06
2023-10-29T17:21:52.461Z,98650.72
2023-10-29T17:22:54.502Z,98649.88
2023-10-29T17:23:56.566Z,98647.34
2023-10-29T17:24:58.690Z,98642.19
2023-10-29T17:26:01.655Z,98647.28
2023-10-29T17:27:04.449Z,98648.25
2023-10-29T17:28:06.472Z,98654.31
2023-10-29T17:29:08.622Z,98652.50
2023-10-29T17:30:11.216Z,98665.63
2023-10-29T17:31:19.981Z,98658.66
2023-10-29T17:32:23.646Z,98664.75
2023-10-29T17:33:25.634Z,98670.03
2023-10-29T17:34:27.740Z,98668.38
2023-10-29T17:35:31.410Z,98667.53
2023-10-29T17:36:36.081Z,98673.59
2023-10-29T17:37:39.645Z,98670.13
2023-10-29T17:38:41.890Z,98675.28
2023-10-29T17:39:44.252Z,98661.44
2023-10-29T17:40:46.455Z,98671.06
2023-10-29T17:41:49.303Z,98671.13
2023-10-29T17:42:51.793Z,98671.94
2023-10-29T17:43:53.824Z,98678.88
2023-10-29T17:44:55.914Z,98671.94
2023-10-29T17:45:58.055Z,98681.63
2023-10-29T17:47:00.133Z,98676.44
2023-10-29T17:48:02.889Z,98684.16
2023-10-29T17:49:05.144Z,98685.06
2023-10-29T17:50:10.318Z,98680.69
2023-10-29T17:51:12.724Z,98687.75
2023-10-29T17:52:14.709Z,98686.88
2023-10-29T17:53:16.669Z,98686.88
2023-10-29T17:54:18.863Z,98684.28
2023-10-29T17:55:20.896Z,98686.00
2023-10-29T17:56:22.888Z,98694.78
2023-10-29T17:57:25.807Z,98694.75
2023-10-29T17:58:28.166Z,98694.66
2023-10-29T17:59:30.534Z,98695.56
2023-10-29T18:00:32.556Z,98697.31
2023-10-29T18:01:34.644Z,98703.41
2023-10-29T18:02:40.550Z,98693.84
2023-10-29T18:03:42.887Z,98694.78
2023-10-29T18:04:45.055Z,98706.13
2023-10-29T18:05:47.259Z,98706.13
2023-10-29T18:06:52.536Z,98701.78
2023-10-29T18:07:54.596Z,98701.72
2023-10-29T18:08:58.060Z,98706.94
2023-10-29T18:10:01.239Z,98707.78
2023-10-29T18:12:34.297Z,98713.13
2023-10-29T18:13:36.594Z,98708.69
2023-10-29T18:14:38.841Z,98713.91
2023-10-29T18:15:40.887Z,98713.97
2023-10-29T18:16:43.297Z,98716.53
2023-10-29T18:17:45.335Z,98721.81
2023-10-29T18:18:47.308Z,98720.97
2023-10-29T18:19:50.721Z,98717.50
2023-10-29T18:20:52.765Z,98720.97
2023-10-29T18:21:54.907Z,98731.41
2023-10-29T18:22:57.079Z,98728.72
2023-10-29T18:23:59.754Z,98736.53
2023-10-29T18:25:01.803Z,98729.63
2023-10-29T18:26:06.385Z,98735.69
2023-10-29T18:27:11.351Z,98736.53
2023-10-29T18:28:14.539Z,98733.09
